Minusinsk, Russia
Current Conditions -  °F | °C
As of 3:30 PM on Thursday 23 Oct 2014 (Local Time) from UNAA Reporting Station
Broken Clouds Broken Clouds  
Wind Chill: 38°   Ceiling: 6600
Heat Index: 41°   Visibility: 6mi
Dew Point: 32°   Wind: 4mph
Humidity: 70%   Direction: 170°S
Pressure: 29.88"   Gusts: NA
Location:  53.71°N, 91.69°E
Report Text: UNAA 230830Z 17002MPS 9999 SCT026CB BKN066 05/M00 Q1012 NOSIGRMK QFE737 20190060
Loading
Personal Weather Stations






























Interactive Weather Map
Tropical Storm Tracking
New forecast layout! Learn more

10-Day Weather Forecast

Advertisements
Track Severe Weather on mobile